EGGP Airport Information

Runway Information
Runway 09 Length 7497 ft width 150 ft Elevation 59 ft Threshold 200 ft Heading 86
Runway 27 Length 7497 ft Width 150 ft Elevation 77 ft Threshold N/A Heading 266
Airport Frequencies
Type APP Name APP Frequency 119.85 MHZ
Type ATIS Name ATIS Frequency 124.325 MHZ
Type GND Name GND Frequency 121.95 MHZ
Type TWR Name TWR Frequency 126.35 MHZ
Airport Navaids
Airport Weather Information & NOTAM
ADDS - METARS form results

(1703 UTC 02 December 2022)
Data provider http://aviationweather.gov/metar/data/
 
METAR text: EGGP 021650Z VRB02KT 8000 FEW018 BKN038 05/04 Q1028
Conditions at: EGGP (LIVERPOOL AIRPOR, GB) observed 1650 UTC 02 December 2022
Temperature: 5.0°C (41°F)
Dewpoint: 4.0°C (39°F) [RH = 93%]
Pressure (altimeter): 30.35 inches Hg (1028.0 mb)
Winds: variable direction winds at 2 MPH (2 knots; 1.0 m/s)
Visibility: 5 miles ( 8 km)
Ceiling: 3800 feet AGL
Clouds: few clouds at 1800 feet AGL
broken clouds at 3800 feet AGL
Weather: no significant weather observed at this time

METAR text: EGGP 021620Z VRB01KT 8000 FEW018 BKN038 05/04 Q1028
Conditions at: EGGP (LIVERPOOL AIRPOR, GB) observed 1620 UTC 02 December 2022
Temperature: 5.0°C (41°F)
Dewpoint: 4.0°C (39°F) [RH = 93%]
Pressure (altimeter): 30.35 inches Hg (1028.0 mb)
Winds: variable direction winds at 1 MPH (1 knots; 0.5 m/s)
Visibility: 5 miles ( 8 km)
Ceiling: 3800 feet AGL
Clouds: few clouds at 1800 feet AGL
broken clouds at 3800 feet AGL
Weather: no significant weather observed at this time

Forecast for: AMD
Text: TAF AMD EGGP 021402Z 0214/0312 10003KT 3000 BR BKN002
Forecast period: 1400 UTC 02 December 2022 to 1200 UTC 03 December 2022
Forecast type: FROM: standard forecast or significant change
Winds: from the E (100 degrees) at 3 MPH (3 knots; 1.5 m/s)
Visibility: 1.86 miles (2.99 km)
Ceiling: 200 feet AGL
Clouds: broken clouds at 200 feet AGL
Weather: BR  (mist)
Text: BECMG 0214/0216 7000 NSW FEW025
Forecast period: 1400 to 2300 UTC 02 December 2022
Forecast type: BECOMING: Conditions expected to become as follows by 1600 UTC 02 December 2022
Winds: from the E (100 degrees) at 3 MPH (3 knots; 1.5 m/s)
Visibility: 4 miles (7 km)
Ceiling: at least 12,000 feet AGL
Clouds: few clouds at 2500 feet AGL
Weather: NSW  (no significant weather)
Text: PROB40
Forecast period: 1400 to 2300 UTC 02 December 2022
Forecast type: TEMPORARY: The following changes expected for less than half the time period
Visibility: 6 or more miles (10+ km)
Ceiling: unknown
Clouds: missing
Weather: no significant weather forecast for this period
Text: TEMPO 0214/0223 9999
Forecast period: 2300 UTC 02 December 2022 to 1200 UTC 03 December 2022
Forecast type: BECOMING: Conditions expected to become as follows by 0200 UTC 03 December 2022
Winds: from the E (100 degrees) at 3 MPH (3 knots; 1.5 m/s)
Visibility: 6 or more miles (10+ km)
Ceiling: at least 12,000 feet AGL
Clouds: few clouds at 2500 feet AGL
Weather: NSW  (no significant weather)